Time,TemperatureF,DewpointF,PressureIn,WindDirection,WindDirectionDegrees,WindSpeedMPH,WindSpeedGustMPH,Humidity,HourlyPrecipIn,Conditions,Clouds,dailyrainin,SolarRadiationWatts/m^2,SoftwareType,DateUTC
2013-06-03 00:05:00,74.0,67.8,29.84,SSE,158,6.0,7.0,81,-99.99,,,0.00,0.00,VWS V14.01,2013-06-03 04:05:00,
2013-06-03 00:10:00,74.0,67.8,29.84,SSE,158,6.0,6.0,81,-99.99,,,0.00,0.00,VWS V14.01,2013-06-03 04:10:00,
2013-06-03 00:15:00,74.0,67.8,29.84,South,180,1.0,3.0,81,-99.99,,,0.00,0.00,VWS V14.01,2013-06-03 04:15:00,
2013-06-03 00:20:00,74.0,67.8,29.84,SSW,202,4.0,4.0,81,-99.99,,,0.00,0.00,VWS V14.01,2013-06-03 04:20:00,
2013-06-03 00:25:00,74.0,67.8,29.84,South,180,3.0,4.0,81,-99.99,,,0.00,0.00,VWS V14.01,2013-06-03 04:25:00,
2013-06-03 00:30:00,74.0,67.8,29.84,ESE,112,2.0,3.0,81,-99.99,,,0.00,0.00,VWS V14.01,2013-06-03 04:30:00,
2013-06-03 00:35:00,74.0,67.8,29.84,SSW,202,4.0,5.0,81,-99.99,,,0.00,0.00,VWS V14.01,2013-06-03 04:35:00,
2013-06-03 00:40:00,74.0,68.2,29.84,SE,135,2.0,4.0,82,-99.99,,,0.00,0.00,VWS V14.01,2013-06-03 04:40:00,
2013-06-03 00:45:00,74.0,68.2,29.84,ESE,112,4.0,5.0,82,-99.99,,,0.00,0.00,VWS V14.01,2013-06-03 04:45:00,
2013-06-03 00:50:00,74.0,68.2,29.84,SW,225,4.0,4.0,82,-99.99,,,0.00,0.00,VWS V14.01,2013-06-03 04:50:00,
2013-06-03 00:55:00,74.0,68.5,29.84,South,180,4.0,4.0,83,-99.99,,,0.00,0.00,VWS V14.01,2013-06-03 04:55:00,
2013-06-03 01:00:00,73.0,67.5,29.84,SSW,202,3.0,4.0,83,-99.99,,,0.00,0.00,VWS V14.01,2013-06-03 05:00:00,
2013-06-03 01:05:00,73.0,67.5,29.84,SSW,202,1.0,3.0,83,-99.99,,,0.00,0.00,VWS V14.01,2013-06-03 05:05:00,
2013-06-03 01:10:00,73.0,67.5,29.84,SSE,158,2.0,3.0,83,-99.99,,,0.00,0.00,VWS V14.01,2013-06-03 05:10:00,
2013-06-03 01:15:00,73.0,67.5,29.84,South,180,7.0,7.0,83,-99.99,,,0.00,0.00,VWS V14.01,2013-06-03 05:15:00,
2013-06-03 01:20:00,73.0,67.9,29.84,SSE,158,3.0,3.0,84,-99.99,,,0.00,0.00,VWS V14.01,2013-06-03 05:20:00,
2013-06-03 01:25:00,73.0,67.9,29.84,West,270,2.0,4.0,84,-99.99,,,0.00,0.00,VWS V14.01,2013-06-03 05:25:00,
2013-06-03 01:30:00,73.0,67.9,29.84,South,180,1.0,1.0,84,-99.99,,,0.00,0.00,VWS V14.01,2013-06-03 05:30:00,
2013-06-03 01:35:00,73.0,67.9,29.84,SSW,202,4.0,4.0,84,-99.99,,,0.00,0.00,VWS V14.01,2013-06-03 05:35:00,
2013-06-03 01:40:00,73.0,67.9,29.84,SSE,158,3.0,4.0,84,-99.99,,,0.00,0.00,VWS V14.01,2013-06-03 05:40:00,
2013-06-03 01:45:00,73.0,67.9,29.84,SSE,158,6.0,6.0,84,-99.99,,,0.00,0.00,VWS V14.01,2013-06-03 05:45:00,
2013-06-03 01:50:00,73.0,68.2,29.84,SSE,158,5.0,5.0,85,-99.99,,,0.00,0.00,VWS V14.01,2013-06-03 05:50:00,
2013-06-03 01:55:00,73.0,68.2,29.84,South,180,1.0,3.0,85,-99.99,,,0.00,0.00,VWS V14.01,2013-06-03 05:55:00,
2013-06-03 02:00:00,73.0,68.2,29.84,South,180,3.0,3.0,85,-99.99,,,0.00,0.00,VWS V14.01,2013-06-03 06:00:00,
2013-06-03 02:05:00,73.0,68.2,29.84,SSW,202,2.0,3.0,85,-99.99,,,0.00,0.00,VWS V14.01,2013-06-03 06:05:00,
2013-06-03 02:10:00,73.0,68.2,29.84,SSE,158,1.0,2.0,85,-99.99,,,0.00,0.00,VWS V14.01,2013-06-03 06:10:00,
2013-06-03 02:15:00,73.0,68.2,29.84,SSE,158,3.0,3.0,85,-99.99,,,0.00,0.00,VWS V14.01,2013-06-03 06:15:00,
2013-06-03 02:20:00,73.0,68.2,29.84,SSE,158,3.0,5.0,85,-99.99,,,0.00,0.00,VWS V14.01,2013-06-03 06:20:00,
2013-06-03 02:25:00,73.0,68.2,29.84,South,180,1.0,1.0,85,-99.99,,,0.00,0.00,VWS V14.01,2013-06-03 06:25:00,
2013-06-03 02:30:00,73.0,68.2,29.84,SE,135,3.0,4.0,85,-99.99,,,0.00,0.00,VWS V14.01,2013-06-03 06:30:00,
2013-06-03 02:35:00,73.0,68.2,29.84,SSE,158,1.0,1.0,85,-99.99,,,0.00,0.00,VWS V14.01,2013-06-03 06:35:00,
2013-06-03 02:40:00,73.0,68.2,29.84,SW,225,2.0,3.0,85,-99.99,,,0.00,0.00,VWS V14.01,2013-06-03 06:40:00,
2013-06-03 02:45:00,73.0,68.2,29.84,SSW,202,2.0,4.0,85,-99.99,,,0.00,0.00,VWS V14.01,2013-06-03 06:45:00,
2013-06-03 02:50:00,73.0,68.2,29.84,SW,225,3.0,3.0,85,-99.99,,,0.00,0.00,VWS V14.01,2013-06-03 06:50:00,
2013-06-03 02:55:00,73.0,68.2,29.84,SW,225,3.0,4.0,85,-99.99,,,0.00,0.00,VWS V14.01,2013-06-03 06:55:00,
2013-06-03 03:00:00,73.0,68.2,29.84,WSW,248,5.0,6.0,85,-99.99,,,0.00,0.00,VWS V14.01,2013-06-03 07:00:00,
2013-06-03 03:05:00,73.0,68.2,29.84,West,270,6.0,6.0,85,-99.99,,,0.00,0.00,VWS V14.01,2013-06-03 07:05:00,
2013-06-03 03:10:00,73.0,68.2,29.84,West,270,5.0,6.0,85,-99.99,,,0.00,0.00,VWS V14.01,2013-06-03 07:10:00,
2013-06-03 03:15:00,72.0,66.9,29.84,West,270,4.0,5.0,84,-99.99,,,0.00,0.00,VWS V14.01,2013-06-03 07:15:00,
2013-06-03 03:20:00,72.0,66.6,29.84,WSW,248,6.0,8.0,83,-99.99,,,0.00,0.00,VWS V14.01,2013-06-03 07:20:00,
2013-06-03 03:25:00,72.0,66.2,29.83,WSW,248,4.0,6.0,82,-99.99,,,0.00,0.00,VWS V14.01,2013-06-03 07:25:00,
2013-06-03 03:30:00,72.0,65.9,29.84,West,270,5.0,7.0,81,-99.99,,,0.00,0.00,VWS V14.01,2013-06-03 07:30:00,
2013-06-03 03:35:00,72.0,65.5,29.84,West,270,3.0,6.0,80,-99.99,,,0.00,0.00,VWS V14.01,2013-06-03 07:35:00,
2013-06-03 03:40:00,72.0,65.1,29.84,WSW,248,3.0,4.0,79,-99.99,,,0.00,0.00,VWS V14.01,2013-06-03 07:40:00,
2013-06-03 03:45:00,72.0,65.1,29.84,WSW,248,6.0,6.0,79,-99.99,,,0.00,0.00,VWS V14.01,2013-06-03 07:45:00,
2013-06-03 03:50:00,72.0,65.5,29.84,WSW,248,5.0,6.0,80,-99.99,,,0.00,0.00,VWS V14.01,2013-06-03 07:50:00,
2013-06-03 03:55:00,71.0,64.5,29.84,WSW,248,3.0,4.0,80,-99.99,,,0.00,0.00,VWS V14.01,2013-06-03 07:55:00,
2013-06-03 04:00:00,71.0,64.5,29.84,WNW,292,3.0,3.0,80,-99.99,,,0.00,0.00,VWS V14.01,2013-06-03 08:00:00,
2013-06-03 04:05:00,71.0,64.9,29.84,WNW,292,3.0,4.0,81,-99.99,,,0.00,0.00,VWS V14.01,2013-06-03 08:05:00,
2013-06-03 04:10:00,71.0,64.5,29.84,West,270,5.0,5.0,80,-99.99,,,0.00,0.00,VWS V14.01,2013-06-03 08:10:00,
2013-06-03 04:15:00,71.0,64.5,29.84,WNW,292,4.0,5.0,80,-99.99,,,0.00,0.00,VWS V14.01,2013-06-03 08:15:00,
2013-06-03 04:20:00,71.0,64.2,29.84,WSW,248,3.0,4.0,79,-99.99,,,0.00,0.00,VWS V14.01,2013-06-03 08:20:00,
2013-06-03 04:25:00,71.0,64.2,29.84,WSW,248,4.0,5.0,79,-99.99,,,0.00,0.00,VWS V14.01,2013-06-03 08:25:00,
2013-06-03 04:30:00,71.0,64.2,29.84,WSW,248,4.0,4.0,79,-99.99,,,0.00,0.00,VWS V14.01,2013-06-03 08:30:00,
2013-06-03 04:35:00,71.0,64.2,29.84,WSW,248,5.0,5.0,79,-99.99,,,0.00,0.00,VWS V14.01,2013-06-03 08:35:00,
2013-06-03 04:40:00,70.0,63.2,29.84,WNW,292,3.0,4.0,79,-99.99,,,0.00,0.00,VWS V14.01,2013-06-03 08:40:00,
2013-06-03 04:45:00,70.0,63.2,29.84,NNW,338,4.0,5.0,79,-99.99,,,0.00,0.00,VWS V14.01,2013-06-03 08:45:00,
2013-06-03 04:50:00,70.0,63.2,29.83,NW,315,3.0,3.0,79,-99.99,,,0.00,0.00,VWS V14.01,2013-06-03 08:50:00,
2013-06-03 04:55:00,70.0,62.8,29.84,WNW,292,4.0,4.0,78,-99.99,,,0.00,0.00,VWS V14.01,2013-06-03 08:55:00,
2013-06-03 05:00:00,70.0,63.2,29.84,NNW,338,7.0,7.0,79,-99.99,,,0.00,0.00,VWS V14.01,2013-06-03 09:00:00,
2013-06-03 05:05:00,70.0,62.8,29.84,NNW,338,5.0,7.0,78,-99.99,,,0.00,0.00,VWS V14.01,2013-06-03 09:05:00,
2013-06-03 05:10:00,70.0,62.8,29.84,NW,315,3.0,4.0,78,-99.99,,,0.00,0.00,VWS V14.01,2013-06-03 09:10:00,
2013-06-03 05:15:00,70.0,62.1,29.85,WNW,292,6.0,6.0,76,-99.99,,,0.00,0.00,VWS V14.01,2013-06-03 09:15:00,
2013-06-03 05:20:00,70.0,62.1,29.84,WNW,292,4.0,4.0,76,-99.99,,,0.00,0.00,VWS V14.01,2013-06-03 09:20:00,
2013-06-03 05:25:00,70.0,62.1,29.84,WNW,292,4.0,6.0,76,-99.99,,,0.00,0.00,VWS V14.01,2013-06-03 09:25:00,
2013-06-03 05:30:00,70.0,62.1,29.84,WNW,292,2.0,4.0,76,-99.99,,,0.00,0.00,VWS V14.01,2013-06-03 09:30:00,
2013-06-03 05:35:00,70.0,62.1,29.84,WNW,292,2.0,2.0,76,-99.99,,,0.00,0.00,VWS V14.01,2013-06-03 09:35:00,
2013-06-03 05:40:00,70.0,61.7,29.84,WNW,292,4.0,4.0,75,-99.99,,,0.00,0.00,VWS V14.01,2013-06-03 09:40:00,
2013-06-03 05:45:00,70.0,62.1,29.85,SSW,202,4.0,4.0,76,-99.99,,,0.00,0.00,VWS V14.01,2013-06-03 09:45:00,
2013-06-03 05:50:00,69.0,61.9,29.86,WSW,248,4.0,7.0,78,-99.99,,,0.00,10.00,VWS V14.01,2013-06-03 09:50:00,
2013-06-03 05:55:00,69.0,62.6,29.86,West,270,8.0,10.0,80,-99.99,,,0.00,10.00,VWS V14.01,2013-06-03 09:55:00,
2013-06-03 06:00:00,68.0,62.7,29.86,WSW,248,6.0,10.0,83,-99.99,,,0.00,10.00,VWS V14.01,2013-06-03 10:00:00,
2013-06-03 06:05:00,68.0,62.7,29.86,West,270,6.0,8.0,83,-99.99,,,0.00,10.00,VWS V14.01,2013-06-03 10:05:00,
2013-06-03 06:10:00,68.0,62.7,29.86,WSW,248,4.0,8.0,83,-99.99,,,0.00,10.00,VWS V14.01,2013-06-03 10:10:00,
2013-06-03 06:15:00,68.0,62.3,29.86,SW,225,4.0,9.0,82,-99.99,,,0.00,20.00,VWS V14.01,2013-06-03 10:15:00,
2013-06-03 06:20:00,68.0,62.3,29.86,West,270,7.0,11.0,82,-99.99,,,0.00,40.00,VWS V14.01,2013-06-03 10:20:00,
2013-06-03 06:25:00,68.0,62.3,29.87,WNW,292,9.0,10.0,82,-99.99,,,0.00,40.00,VWS V14.01,2013-06-03 10:25:00,
2013-06-03 06:30:00,68.0,62.7,29.87,West,270,10.0,12.0,83,-99.99,,,0.00,50.00,VWS V14.01,2013-06-03 10:30:00,
2013-06-03 06:35:00,68.0,62.7,29.87,West,270,7.0,7.0,83,-99.99,,,0.00,60.00,VWS V14.01,2013-06-03 10:35:00,
2013-06-03 06:40:00,68.0,62.7,29.87,West,270,6.0,7.0,83,-99.99,,,0.00,70.00,VWS V14.01,2013-06-03 10:40:00,
2013-06-03 06:45:00,68.0,62.3,29.87,WNW,292,8.0,8.0,82,-99.99,,,0.00,80.00,VWS V14.01,2013-06-03 10:45:00,
2013-06-03 06:50:00,68.0,62.0,29.87,WNW,292,5.0,6.0,81,-99.99,,,0.00,170.00,VWS V14.01,2013-06-03 10:50:00,
2013-06-03 06:55:00,69.0,61.9,29.87,WNW,292,3.0,9.0,78,-99.99,,,0.00,180.00,VWS V14.01,2013-06-03 10:55:00,
2013-06-03 07:00:00,69.0,61.9,29.87,WNW,292,7.0,8.0,78,-99.99,,,0.00,100.00,VWS V14.01,2013-06-03 11:00:00,
2013-06-03 07:05:00,69.0,61.9,29.88,NNW,338,1.0,2.0,78,-99.99,,,0.00,140.00,VWS V14.01,2013-06-03 11:05:00,
2013-06-03 07:10:00,69.0,61.5,29.87,NW,315,6.0,7.0,77,-99.99,,,0.00,90.00,VWS V14.01,2013-06-03 11:10:00,
2013-06-03 07:15:00,69.0,61.5,29.88,NW,315,2.0,5.0,77,-99.99,,,0.00,140.00,VWS V14.01,2013-06-03 11:15:00,
2013-06-03 07:20:00,69.0,61.1,29.87,NW,315,4.0,8.0,76,-99.99,,,0.00,300.00,VWS V14.01,2013-06-03 11:20:00,
2013-06-03 07:25:00,70.0,61.7,29.88,West,270,1.0,3.0,75,-99.99,,,0.00,240.00,VWS V14.01,2013-06-03 11:25:00,
2013-06-03 07:30:00,70.0,61.3,29.87,West,270,4.0,5.0,74,-99.99,,,0.00,170.00,VWS V14.01,2013-06-03 11:30:00,
2013-06-03 07:35:00,69.0,60.8,29.87,NNW,338,4.0,4.0,75,-99.99,,,0.00,90.00,VWS V14.01,2013-06-03 11:35:00,
2013-06-03 07:40:00,70.0,61.7,29.88,NW,315,1.0,2.0,75,-99.99,,,0.00,320.00,VWS V14.01,2013-06-03 11:40:00,
2013-06-03 07:45:00,70.0,60.6,29.88,WNW,292,4.0,7.0,72,-99.99,,,0.00,360.00,VWS V14.01,2013-06-03 11:45:00,
2013-06-03 07:50:00,70.0,61.0,29.88,West,270,2.0,4.0,73,-99.99,,,0.00,140.00,VWS V14.01,2013-06-03 11:50:00,
2013-06-03 07:55:00,70.0,61.7,29.89,WNW,292,4.0,5.0,75,-99.99,,,0.00,120.00,VWS V14.01,2013-06-03 11:55:00,
2013-06-03 08:00:00,69.0,61.1,29.88,WSW,248,7.0,10.0,76,-99.99,,,0.00,120.00,VWS V14.01,2013-06-03 12:00:00,
2013-06-03 08:05:00,68.0,60.2,29.89,WNW,292,5.0,9.0,76,-99.99,,,0.00,110.00,VWS V14.01,2013-06-03 12:05:00,
2013-06-03 08:10:00,68.0,60.2,29.89,WSW,248,9.0,10.0,76,-99.99,,,0.00,100.00,VWS V14.01,2013-06-03 12:10:00,
2013-06-03 08:15:00,68.0,60.2,29.89,WSW,248,3.0,7.0,76,-99.99,,,0.00,70.00,VWS V14.01,2013-06-03 12:15:00,
2013-06-03 08:20:00,68.0,60.2,29.89,West,270,5.0,7.0,76,-99.99,,,0.00,80.00,VWS V14.01,2013-06-03 12:20:00,
2013-06-03 08:25:00,68.0,59.8,29.90,WSW,248,7.0,8.0,75,-99.99,,,0.00,70.00,VWS V14.01,2013-06-03 12:25:00,
2013-06-03 08:30:00,68.0,60.2,29.90,WSW,248,9.0,9.0,76,-99.99,,,0.00,60.00,VWS V14.01,2013-06-03 12:30:00,
2013-06-03 08:35:00,68.0,59.8,29.89,West,270,5.0,7.0,75,-99.99,,,0.00,80.00,VWS V14.01,2013-06-03 12:35:00,
2013-06-03 08:40:00,68.0,59.8,29.89,WSW,248,3.0,6.0,75,-99.99,,,0.00,90.00,VWS V14.01,2013-06-03 12:40:00,
2013-06-03 08:45:00,68.0,59.4,29.89,West,270,5.0,6.0,74,-99.99,,,0.00,90.00,VWS V14.01,2013-06-03 12:45:00,
2013-06-03 08:50:00,69.0,60.0,29.89,West,270,7.0,8.0,73,-99.99,,,0.00,130.00,VWS V14.01,2013-06-03 12:50:00,
2013-06-03 08:55:00,69.0,60.0,29.89,WSW,248,5.0,6.0,73,-99.99,,,0.00,520.00,VWS V14.01,2013-06-03 12:55:00,
2013-06-03 09:00:00,70.0,60.6,29.89,SW,225,2.0,7.0,72,-99.99,,,0.00,610.00,VWS V14.01,2013-06-03 13:00:00,
2013-06-03 09:05:00,70.0,59.0,29.89,WNW,292,3.0,6.0,68,-99.99,,,0.00,290.00,VWS V14.01,2013-06-03 13:05:00,
2013-06-03 09:10:00,70.0,59.0,29.89,West,270,7.0,9.0,68,-99.99,,,0.00,400.00,VWS V14.01,2013-06-03 13:10:00,
2013-06-03 09:15:00,70.0,59.0,29.89,West,270,5.0,7.0,68,-99.99,,,0.00,270.00,VWS V14.01,2013-06-03 13:15:00,
2013-06-03 09:20:00,70.0,59.4,29.89,WSW,248,3.0,4.0,69,-99.99,,,0.00,510.00,VWS V14.01,2013-06-03 13:20:00,
2013-06-03 09:25:00,70.0,59.0,29.90,West,270,4.0,7.0,68,-99.99,,,0.00,280.00,VWS V14.01,2013-06-03 13:25:00,
2013-06-03 09:30:00,70.0,59.0,29.90,WSW,248,6.0,8.0,68,-99.99,,,0.00,290.00,VWS V14.01,2013-06-03 13:30:00,
2013-06-03 09:35:00,70.0,59.4,29.89,WNW,292,5.0,5.0,69,-99.99,,,0.00,290.00,VWS V14.01,2013-06-03 13:35:00,
2013-06-03 09:40:00,70.0,59.0,29.89,West,270,8.0,9.0,68,-99.99,,,0.00,300.00,VWS V14.01,2013-06-03 13:40:00,
2013-06-03 09:45:00,70.0,59.4,29.89,West,270,6.0,10.0,69,-99.99,,,0.00,290.00,VWS V14.01,2013-06-03 13:45:00,
2013-06-03 09:50:00,70.0,59.0,29.89,WNW,292,6.0,8.0,68,-99.99,,,0.00,240.00,VWS V14.01,2013-06-03 13:50:00,
2013-06-03 09:55:00,71.0,59.9,29.90,West,270,10.0,12.0,68,-99.99,,,0.00,330.00,VWS V14.01,2013-06-03 13:55:00,
2013-06-03 10:00:00,70.0,59.0,29.90,WSW,248,10.0,13.0,68,-99.99,,,0.00,410.00,VWS V14.01,2013-06-03 14:00:00,
2013-06-03 10:05:00,70.0,59.0,29.90,WSW,248,10.0,12.0,68,-99.99,,,0.00,630.00,VWS V14.01,2013-06-03 14:05:00,
2013-06-03 10:10:00,70.0,59.0,29.90,WSW,248,10.0,16.0,68,-99.99,,,0.00,330.00,VWS V14.01,2013-06-03 14:10:00,
2013-06-03 10:15:00,70.0,59.0,29.90,WSW,248,8.0,9.0,68,-99.99,,,0.00,360.00,VWS V14.01,2013-06-03 14:15:00,
2013-06-03 10:20:00,70.0,59.0,29.89,South,180,8.0,11.0,68,-99.99,,,0.00,640.00,VWS V14.01,2013-06-03 14:20:00,
2013-06-03 10:25:00,71.0,59.1,29.89,SW,225,7.0,9.0,66,-99.99,,,0.00,660.00,VWS V14.01,2013-06-03 14:25:00,
2013-06-03 10:30:00,71.0,59.5,29.89,SSW,202,5.0,10.0,67,-99.99,,,0.00,650.00,VWS V14.01,2013-06-03 14:30:00,
2013-06-03 10:35:00,72.0,60.5,29.89,SE,135,2.0,3.0,67,-99.99,,,0.00,670.00,VWS V14.01,2013-06-03 14:35:00,
2013-06-03 10:40:00,72.0,59.2,29.89,NW,315,5.0,7.0,64,-99.99,,,0.00,440.00,VWS V14.01,2013-06-03 14:40:00,
2013-06-03 10:45:00,72.0,59.2,29.89,West,270,6.0,7.0,64,-99.99,,,0.00,270.00,VWS V14.01,2013-06-03 14:45:00,
2013-06-03 10:50:00,72.0,58.7,29.89,SW,225,9.0,10.0,63,-99.99,,,0.00,760.00,VWS V14.01,2013-06-03 14:50:00,
2013-06-03 10:55:00,73.0,59.2,29.89,WSW,248,7.0,8.0,62,-99.99,,,0.00,800.00,VWS V14.01,2013-06-03 14:55:00,
2013-06-03 11:00:00,73.0,58.8,29.89,West,270,4.0,8.0,61,-99.99,,,0.00,340.00,VWS V14.01,2013-06-03 15:00:00,
2013-06-03 11:05:00,73.0,58.8,29.89,WSW,248,7.0,10.0,61,-99.99,,,0.00,720.00,VWS V14.01,2013-06-03 15:05:00,
2013-06-03 11:10:00,74.0,59.2,29.89,North,0,11.0,11.0,60,-99.99,,,0.00,760.00,VWS V14.01,2013-06-03 15:10:00,
2013-06-03 11:15:00,74.0,59.7,29.89,West,270,6.0,9.0,61,-99.99,,,0.00,300.00,VWS V14.01,2013-06-03 15:15:00,
2013-06-03 11:20:00,73.0,58.8,29.89,WSW,248,12.0,12.0,61,-99.99,,,0.00,850.00,VWS V14.01,2013-06-03 15:20:00,
2013-06-03 11:25:00,73.0,58.3,29.89,West,270,6.0,11.0,60,-99.99,,,0.00,840.00,VWS V14.01,2013-06-03 15:25:00,
2013-06-03 11:30:00,74.0,59.2,29.89,West,270,5.0,7.0,60,-99.99,,,0.00,430.00,VWS V14.01,2013-06-03 15:30:00,
2013-06-03 11:35:00,74.0,59.2,29.89,West,270,9.0,16.0,60,-99.99,,,0.00,960.00,VWS V14.01,2013-06-03 15:35:00,
2013-06-03 11:40:00,73.0,59.2,29.89,West,270,8.0,10.0,62,-99.99,,,0.00,300.00,VWS V14.01,2013-06-03 15:40:00,
2013-06-03 11:45:00,73.0,59.2,29.89,West,270,6.0,10.0,62,-99.99,,,0.00,270.00,VWS V14.01,2013-06-03 15:45:00,
2013-06-03 11:50:00,73.0,59.2,29.89,SW,225,4.0,5.0,62,-99.99,,,0.00,340.00,VWS V14.01,2013-06-03 15:50:00,
2013-06-03 11:55:00,73.0,60.1,29.89,WSW,248,11.0,14.0,64,-99.99,,,0.00,270.00,VWS V14.01,2013-06-03 15:55:00,
2013-06-03 12:00:00,72.0,59.2,29.90,West,270,7.0,13.0,64,-99.99,,,0.00,310.00,VWS V14.01,2013-06-03 16:00:00,
2013-06-03 12:05:00,72.0,59.2,29.90,WSW,248,13.0,15.0,64,-99.99,,,0.00,340.00,VWS V14.01,2013-06-03 16:05:00,
2013-06-03 12:10:00,72.0,59.6,29.90,SW,225,13.0,13.0,65,-99.99,,,0.00,430.00,VWS V14.01,2013-06-03 16:10:00,
2013-06-03 12:15:00,73.0,60.1,29.90,WSW,248,7.0,13.0,64,-99.99,,,0.00,370.00,VWS V14.01,2013-06-03 16:15:00,
2013-06-03 12:20:00,72.0,59.2,29.90,WSW,248,10.0,10.0,64,-99.99,,,0.00,230.00,VWS V14.01,2013-06-03 16:20:00,
2013-06-03 12:25:00,72.0,59.6,29.90,West,270,14.0,16.0,65,-99.99,,,0.00,260.00,VWS V14.01,2013-06-03 16:25:00,
2013-06-03 12:30:00,72.0,58.3,29.90,WSW,248,12.0,17.0,62,-99.99,,,0.00,390.00,VWS V14.01,2013-06-03 16:30:00,
2013-06-03 12:35:00,72.0,58.7,29.90,WSW,248,9.0,15.0,63,-99.99,,,0.00,450.00,VWS V14.01,2013-06-03 16:35:00,
2013-06-03 12:40:00,72.0,58.3,29.90,West,270,13.0,16.0,62,-99.99,,,0.00,620.00,VWS V14.01,2013-06-03 16:40:00,
2013-06-03 12:45:00,73.0,58.3,29.90,West,270,7.0,12.0,60,-99.99,,,0.00,450.00,VWS V14.01,2013-06-03 16:45:00,
2013-06-03 12:50:00,73.0,58.3,29.89,West,270,8.0,9.0,60,-99.99,,,0.00,510.00,VWS V14.01,2013-06-03 16:50:00,
2013-06-03 12:55:00,73.0,58.3,29.89,WSW,248,9.0,12.0,60,-99.99,,,0.00,520.00,VWS V14.01,2013-06-03 16:55:00,
2013-06-03 13:00:00,73.0,57.8,29.89,WSW,248,8.0,14.0,59,-99.99,,,0.00,490.00,VWS V14.01,2013-06-03 17:00:00,
2013-06-03 13:05:00,73.0,57.8,29.89,South,180,9.0,13.0,59,-99.99,,,0.00,450.00,VWS V14.01,2013-06-03 17:05:00,
2013-06-03 13:10:00,73.0,57.8,29.89,SW,225,10.0,12.0,59,-99.99,,,0.00,380.00,VWS V14.01,2013-06-03 17:10:00,
2013-06-03 13:15:00,73.0,58.3,29.88,SSW,202,7.0,12.0,60,-99.99,,,0.00,390.00,VWS V14.01,2013-06-03 17:15:00,
2013-06-03 13:20:00,73.0,57.8,29.88,SSW,202,7.0,8.0,59,-99.99,,,0.00,460.00,VWS V14.01,2013-06-03 17:20:00,
2013-06-03 13:25:00,74.0,58.8,29.88,West,270,6.0,14.0,59,-99.99,,,0.00,500.00,VWS V14.01,2013-06-03 17:25:00,
2013-06-03 13:30:00,74.0,58.3,29.88,West,270,10.0,16.0,58,-99.99,,,0.00,490.00,VWS V14.01,2013-06-03 17:30:00,
2013-06-03 13:35:00,74.0,58.3,29.88,SW,225,8.0,9.0,58,-99.99,,,0.00,440.00,VWS V14.01,2013-06-03 17:35:00,
2013-06-03 13:40:00,74.0,58.3,29.88,SW,225,7.0,8.0,58,-99.99,,,0.00,330.00,VWS V14.01,2013-06-03 17:40:00,
2013-06-03 13:45:00,74.0,58.3,29.88,SW,225,8.0,8.0,58,-99.99,,,0.00,350.00,VWS V14.01,2013-06-03 17:45:00,
2013-06-03 13:50:00,74.0,57.8,29.88,SW,225,3.0,9.0,57,-99.99,,,0.00,500.00,VWS V14.01,2013-06-03 17:50:00,
2013-06-03 13:55:00,74.0,58.3,29.89,WSW,248,5.0,11.0,58,-99.99,,,0.00,510.00,VWS V14.01,2013-06-03 17:55:00,
2013-06-03 14:00:00,74.0,58.8,29.89,WSW,248,8.0,11.0,59,-99.99,,,0.00,450.00,VWS V14.01,2013-06-03 18:00:00,
2013-06-03 14:05:00,74.0,58.3,29.89,SW,225,14.0,16.0,58,-99.99,,,0.00,370.00,VWS V14.01,2013-06-03 18:05:00,
2013-06-03 14:10:00,75.0,58.8,29.88,WSW,248,9.0,16.0,57,-99.99,,,0.00,750.00,VWS V14.01,2013-06-03 18:10:00,
2013-06-03 14:15:00,74.0,58.3,29.88,SW,225,5.0,10.0,58,-99.99,,,0.00,210.00,VWS V14.01,2013-06-03 18:15:00,
2013-06-03 14:20:00,74.0,57.8,29.88,WSW,248,15.0,16.0,57,-99.99,,,0.00,820.00,VWS V14.01,2013-06-03 18:20:00,
2013-06-03 14:25:00,74.0,57.8,29.88,West,270,12.0,13.0,57,-99.99,,,0.00,370.00,VWS V14.01,2013-06-03 18:25:00,
2013-06-03 14:30:00,74.0,57.3,29.87,WSW,248,7.0,16.0,56,-99.99,,,0.00,860.00,VWS V14.01,2013-06-03 18:30:00,
2013-06-03 14:35:00,75.0,58.3,29.87,SSW,202,6.0,8.0,56,-99.99,,,0.00,360.00,VWS V14.01,2013-06-03 18:35:00,
2013-06-03 14:40:00,75.0,58.3,29.87,SSW,202,5.0,9.0,56,-99.99,,,0.00,340.00,VWS V14.01,2013-06-03 18:40:00,
2013-06-03 14:45:00,75.0,58.3,29.87,SW,225,6.0,11.0,56,-99.99,,,0.00,300.00,VWS V14.01,2013-06-03 18:45:00,
2013-06-03 14:50:00,75.0,58.3,29.87,West,270,8.0,10.0,56,-99.99,,,0.00,380.00,VWS V14.01,2013-06-03 18:50:00,
2013-06-03 14:55:00,75.0,58.3,29.87,West,270,3.0,7.0,56,-99.99,,,0.00,460.00,VWS V14.01,2013-06-03 18:55:00,
2013-06-03 15:00:00,75.0,57.2,29.87,SW,225,4.0,9.0,54,-99.99,,,0.00,830.00,VWS V14.01,2013-06-03 19:00:00,
2013-06-03 15:05:00,76.0,58.2,29.87,SSW,202,8.0,11.0,54,-99.99,,,0.00,340.00,VWS V14.01,2013-06-03 19:05:00,
2013-06-03 15:10:00,76.0,57.7,29.87,SW,225,13.0,16.0,53,-99.99,,,0.00,480.00,VWS V14.01,2013-06-03 19:10:00,
2013-06-03 15:15:00,75.0,56.7,29.86,WSW,248,7.0,10.0,53,-99.99,,,0.00,360.00,VWS V14.01,2013-06-03 19:15:00,
2013-06-03 15:20:00,75.0,57.2,29.86,SW,225,8.0,9.0,54,-99.99,,,0.00,270.00,VWS V14.01,2013-06-03 19:20:00,
2013-06-03 15:25:00,75.0,57.8,29.86,West,270,8.0,10.0,55,-99.99,,,0.00,290.00,VWS V14.01,2013-06-03 19:25:00,
2013-06-03 15:30:00,75.0,57.8,29.86,WSW,248,7.0,11.0,55,-99.99,,,0.00,320.00,VWS V14.01,2013-06-03 19:30:00,
2013-06-03 15:35:00,75.0,57.2,29.87,SW,225,8.0,11.0,54,-99.99,,,0.00,390.00,VWS V14.01,2013-06-03 19:35:00,
2013-06-03 15:40:00,75.0,57.2,29.87,WSW,248,5.0,15.0,54,-99.99,,,0.00,440.00,VWS V14.01,2013-06-03 19:40:00,
2013-06-03 15:45:00,75.0,57.2,29.86,West,270,6.0,13.0,54,-99.99,,,0.00,380.00,VWS V14.01,2013-06-03 19:45:00,
2013-06-03 15:50:00,75.0,56.7,29.86,SW,225,11.0,14.0,53,-99.99,,,0.00,240.00,VWS V14.01,2013-06-03 19:50:00,
2013-06-03 15:55:00,75.0,57.8,29.86,WSW,248,9.0,9.0,55,-99.99,,,0.00,210.00,VWS V14.01,2013-06-03 19:55:00,
2013-06-03 16:00:00,75.0,58.3,29.86,WNW,292,4.0,6.0,56,-99.99,,,0.00,240.00,VWS V14.01,2013-06-03 20:00:00,
2013-06-03 16:05:00,75.0,57.2,29.86,WSW,248,6.0,9.0,54,-99.99,,,0.00,290.00,VWS V14.01,2013-06-03 20:05:00,
2013-06-03 16:10:00,75.0,56.7,29.86,WSW,248,6.0,12.0,53,-99.99,,,0.00,220.00,VWS V14.01,2013-06-03 20:10:00,
2013-06-03 16:15:00,75.0,57.2,29.86,SSW,202,5.0,8.0,54,-99.99,,,0.00,150.00,VWS V14.01,2013-06-03 20:15:00,
2013-06-03 16:20:00,75.0,57.8,29.86,SE,135,10.0,11.0,55,-99.99,,,0.00,210.00,VWS V14.01,2013-06-03 20:20:00,
2013-06-03 16:25:00,76.0,58.2,29.86,South,180,5.0,9.0,54,-99.99,,,0.00,300.00,VWS V14.01,2013-06-03 20:25:00,
2013-06-03 16:30:00,75.0,57.2,29.86,South,180,6.0,11.0,54,-99.99,,,0.00,670.00,VWS V14.01,2013-06-03 20:30:00,
2013-06-03 16:35:00,76.0,58.2,29.86,WSW,248,5.0,10.0,54,-99.99,,,0.00,280.00,VWS V14.01,2013-06-03 20:35:00,
2013-06-03 16:40:00,76.0,58.7,29.86,South,180,5.0,6.0,55,-99.99,,,0.00,510.00,VWS V14.01,2013-06-03 20:40:00,
2013-06-03 16:45:00,76.0,57.1,29.86,SSE,158,11.0,12.0,52,-99.99,,,0.00,230.00,VWS V14.01,2013-06-03 20:45:00,
2013-06-03 16:50:00,76.0,57.7,29.86,South,180,3.0,9.0,53,-99.99,,,0.00,520.00,VWS V14.01,2013-06-03 20:50:00,
2013-06-03 16:55:00,75.0,56.7,29.86,SSE,158,7.0,8.0,53,-99.99,,,0.00,330.00,VWS V14.01,2013-06-03 20:55:00,
2013-06-03 17:00:00,76.0,57.7,29.85,WSW,248,6.0,9.0,53,-99.99,,,0.00,560.00,VWS V14.01,2013-06-03 21:00:00,
2013-06-03 17:05:00,76.0,58.2,29.85,WSW,248,6.0,8.0,54,-99.99,,,0.00,320.00,VWS V14.01,2013-06-03 21:05:00,
2013-06-03 17:10:00,75.0,57.2,29.86,WSW,248,4.0,5.0,54,-99.99,,,0.00,140.00,VWS V14.01,2013-06-03 21:10:00,
2013-06-03 17:15:00,75.0,57.8,29.85,WNW,292,9.0,9.0,55,-99.99,,,0.00,110.00,VWS V14.01,2013-06-03 21:15:00,
2013-06-03 17:20:00,75.0,57.8,29.85,West,270,7.0,8.0,55,-99.99,,,0.00,120.00,VWS V14.01,2013-06-03 21:20:00,
2013-06-03 17:25:00,75.0,57.8,29.86,WSW,248,9.0,10.0,55,-99.99,,,0.00,210.00,VWS V14.01,2013-06-03 21:25:00,
2013-06-03 17:30:00,75.0,57.2,29.86,WSW,248,10.0,12.0,54,-99.99,,,0.00,220.00,VWS V14.01,2013-06-03 21:30:00,
2013-06-03 17:35:00,75.0,57.8,29.85,West,270,8.0,11.0,55,-99.99,,,0.00,170.00,VWS V14.01,2013-06-03 21:35:00,
2013-06-03 17:40:00,75.0,57.2,29.85,SW,225,9.0,10.0,54,-99.99,,,0.00,180.00,VWS V14.01,2013-06-03 21:40:00,
2013-06-03 17:45:00,75.0,57.2,29.85,WSW,248,4.0,8.0,54,-99.99,,,0.00,200.00,VWS V14.01,2013-06-03 21:45:00,
2013-06-03 17:50:00,76.0,57.7,29.85,SSW,202,5.0,10.0,53,-99.99,,,0.00,160.00,VWS V14.01,2013-06-03 21:50:00,
2013-06-03 17:55:00,75.0,56.7,29.85,SW,225,6.0,10.0,53,-99.99,,,0.00,110.00,VWS V14.01,2013-06-03 21:55:00,
2013-06-03 18:00:00,75.0,56.7,29.85,WSW,248,4.0,8.0,53,-99.99,,,0.00,400.00,VWS V14.01,2013-06-03 22:00:00,
2013-06-03 18:05:00,76.0,57.7,29.85,WSW,248,4.0,10.0,53,-99.99,,,0.00,410.00,VWS V14.01,2013-06-03 22:05:00,
2013-06-03 18:10:00,76.0,56.6,29.85,WSW,248,10.0,10.0,51,-99.99,,,0.00,350.00,VWS V14.01,2013-06-03 22:10:00,
2013-06-03 18:15:00,76.0,56.6,29.85,West,270,5.0,8.0,51,-99.99,,,0.00,350.00,VWS V14.01,2013-06-03 22:15:00,
2013-06-03 18:20:00,76.0,56.6,29.85,West,270,4.0,6.0,51,-99.99,,,0.00,210.00,VWS V14.01,2013-06-03 22:20:00,
2013-06-03 18:25:00,76.0,56.6,29.85,West,270,3.0,7.0,51,-99.99,,,0.00,110.00,VWS V14.01,2013-06-03 22:25:00,
2013-06-03 18:30:00,75.0,58.3,29.86,NW,315,7.0,14.0,56,-99.99,,,0.00,80.00,VWS V14.01,2013-06-03 22:30:00,
2013-06-03 18:35:00,74.0,58.3,29.86,NNW,338,7.0,12.0,58,-99.99,,,0.00,100.00,VWS V14.01,2013-06-03 22:35:00,
2013-06-03 18:40:00,74.0,58.8,29.86,North,0,7.0,10.0,59,-99.99,,,0.00,130.00,VWS V14.01,2013-06-03 22:40:00,
2013-06-03 18:45:00,74.0,59.2,29.86,NNW,338,10.0,12.0,60,-99.99,,,0.00,320.00,VWS V14.01,2013-06-03 22:45:00,
2013-06-03 18:50:00,74.0,59.2,29.86,North,0,5.0,8.0,60,-99.99,,,0.00,270.00,VWS V14.01,2013-06-03 22:50:00,
2013-06-03 18:55:00,74.0,58.8,29.86,NNE,22,6.0,9.0,59,-99.99,,,0.00,220.00,VWS V14.01,2013-06-03 22:55:00,
2013-06-03 19:00:00,74.0,58.8,29.86,NNW,338,5.0,11.0,59,-99.99,,,0.00,200.00,VWS V14.01,2013-06-03 23:00:00,
2013-06-03 19:05:00,74.0,58.8,29.87,NNE,22,7.0,7.0,59,-99.99,,,0.00,180.00,VWS V14.01,2013-06-03 23:05:00,
2013-06-03 19:10:00,74.0,58.8,29.87,North,0,6.0,8.0,59,-99.99,,,0.00,170.00,VWS V14.01,2013-06-03 23:10:00,
2013-06-03 19:15:00,74.0,58.3,29.87,NNW,338,8.0,9.0,58,-99.99,,,0.00,160.00,VWS V14.01,2013-06-03 23:15:00,
2013-06-03 19:20:00,73.0,58.3,29.87,WNW,292,7.0,10.0,60,-99.99,,,0.00,150.00,VWS V14.01,2013-06-03 23:20:00,
2013-06-03 19:25:00,73.0,58.3,29.87,WNW,292,5.0,8.0,60,-99.99,,,0.00,140.00,VWS V14.01,2013-06-03 23:25:00,
2013-06-03 19:30:00,73.0,57.8,29.87,WNW,292,4.0,9.0,59,-99.99,,,0.00,130.00,VWS V14.01,2013-06-03 23:30:00,
2013-06-03 19:35:00,73.0,57.8,29.88,NNW,338,9.0,10.0,59,-99.99,,,0.00,110.00,VWS V14.01,2013-06-03 23:35:00,
2013-06-03 19:40:00,72.0,56.9,29.88,NW,315,6.0,10.0,59,-99.99,,,0.00,30.00,VWS V14.01,2013-06-03 23:40:00,
2013-06-03 19:45:00,72.0,57.8,29.88,NNW,338,9.0,12.0,61,-99.99,,,0.00,40.00,VWS V14.01,2013-06-03 23:45:00,
2013-06-03 19:50:00,72.0,58.3,29.88,NNW,338,7.0,8.0,62,-99.99,,,0.00,30.00,VWS V14.01,2013-06-03 23:50:00,
2013-06-03 19:55:00,71.0,56.9,29.88,NNW,338,11.0,13.0,61,-99.99,,,0.00,20.00,VWS V14.01,2013-06-03 23:55:00,
2013-06-03 20:00:00,71.0,56.9,29.88,NNW,338,7.0,11.0,61,-99.99,,,0.00,20.00,VWS V14.01,2013-06-04 00:00:00,
2013-06-03 20:05:00,71.0,56.9,29.89,North,0,9.0,11.0,61,-99.99,,,0.00,10.00,VWS V14.01,2013-06-04 00:05:00,
2013-06-03 20:10:00,71.0,56.0,29.89,WNW,292,7.0,19.0,59,-99.99,,,0.00,20.00,VWS V14.01,2013-06-04 00:10:00,
2013-06-03 20:15:00,70.0,55.0,29.90,WNW,292,8.0,12.0,59,-99.99,,,0.00,10.00,VWS V14.01,2013-06-04 00:15:00,
2013-06-03 20:20:00,70.0,54.1,29.90,NW,315,8.0,17.0,57,-99.99,,,0.00,10.00,VWS V14.01,2013-06-04 00:20:00,
2013-06-03 20:25:00,70.0,54.1,29.90,NNW,338,12.0,15.0,57,-99.99,,,0.00,10.00,VWS V14.01,2013-06-04 00:25:00,
2013-06-03 20:30:00,70.0,54.1,29.91,NW,315,9.0,10.0,57,-99.99,,,0.00,10.00,VWS V14.01,2013-06-04 00:30:00,
2013-06-03 20:35:00,69.0,52.7,29.91,South,180,8.0,12.0,56,-99.99,,,0.00,0.00,VWS V14.01,2013-06-04 00:35:00,
2013-06-03 20:40:00,69.0,53.2,29.91,NW,315,4.0,7.0,57,-99.99,,,0.00,0.00,VWS V14.01,2013-06-04 00:40:00,
2013-06-03 20:45:00,69.0,52.7,29.91,NNW,338,10.0,13.0,56,-99.99,,,0.00,0.00,VWS V14.01,2013-06-04 00:45:00,
2013-06-03 20:50:00,69.0,52.7,29.91,WNW,292,13.0,13.0,56,-99.99,,,0.00,0.00,VWS V14.01,2013-06-04 00:50:00,
2013-06-03 20:55:00,69.0,52.7,29.91,North,0,8.0,9.0,56,-99.99,,,0.00,0.00,VWS V14.01,2013-06-04 00:55:00,
2013-06-03 21:00:00,68.0,51.2,29.92,North,0,7.0,11.0,55,-99.99,,,0.00,0.00,VWS V14.01,2013-06-04 01:00:00,
2013-06-03 21:05:00,68.0,50.8,29.91,North,0,8.0,10.0,54,-99.99,,,0.00,0.00,VWS V14.01,2013-06-04 01:05:00,
2013-06-03 21:10:00,68.0,50.8,29.92,NW,315,4.0,10.0,54,-99.99,,,0.00,0.00,VWS V14.01,2013-06-04 01:10:00,
2013-06-03 21:15:00,68.0,50.8,29.93,NW,315,8.0,10.0,54,-99.99,,,0.00,0.00,VWS V14.01,2013-06-04 01:15:00,
2013-06-03 21:20:00,67.0,50.3,29.93,North,0,7.0,7.0,55,-99.99,,,0.00,0.00,VWS V14.01,2013-06-04 01:20:00,
2013-06-03 21:25:00,67.0,50.3,29.93,NW,315,7.0,8.0,55,-99.99,,,0.00,0.00,VWS V14.01,2013-06-04 01:25:00,
2013-06-03 21:30:00,67.0,50.3,29.93,NNW,338,5.0,8.0,55,-99.99,,,0.00,0.00,VWS V14.01,2013-06-04 01:30:00,
2013-06-03 21:35:00,67.0,50.8,29.94,South,180,10.0,10.0,56,-99.99,,,0.00,0.00,VWS V14.01,2013-06-04 01:35:00,
2013-06-03 21:40:00,67.0,50.8,29.94,WNW,292,3.0,8.0,56,-99.99,,,0.00,0.00,VWS V14.01,2013-06-04 01:40:00,
2013-06-03 21:45:00,66.0,49.9,29.94,NW,315,2.0,6.0,56,-99.99,,,0.00,0.00,VWS V14.01,2013-06-04 01:45:00,
2013-06-03 21:50:00,66.0,49.9,29.94,NNE,22,4.0,4.0,56,-99.99,,,0.00,0.00,VWS V14.01,2013-06-04 01:50:00,
2013-06-03 21:55:00,66.0,49.4,29.94,West,270,5.0,7.0,55,-99.99,,,0.00,0.00,VWS V14.01,2013-06-04 01:55:00,
2013-06-03 22:00:00,66.0,49.4,29.94,WSW,248,7.0,8.0,55,-99.99,,,0.00,0.00,VWS V14.01,2013-06-04 02:00:00,
2013-06-03 22:05:00,65.0,48.0,29.95,North,0,5.0,8.0,54,-99.99,,,0.00,0.00,VWS V14.01,2013-06-04 02:05:00,
2013-06-03 22:10:00,65.0,48.0,29.95,North,0,5.0,5.0,54,-99.99,,,0.00,0.00,VWS V14.01,2013-06-04 02:10:00,
2013-06-03 22:15:00,65.0,48.0,29.95,WNW,292,3.0,8.0,54,-99.99,,,0.00,0.00,VWS V14.01,2013-06-04 02:15:00,
2013-06-03 22:20:00,65.0,48.5,29.96,WNW,292,3.0,5.0,55,-99.99,,,0.00,0.00,VWS V14.01,2013-06-04 02:20:00,
2013-06-03 22:25:00,65.0,48.5,29.96,NNW,338,3.0,6.0,55,-99.99,,,0.00,0.00,VWS V14.01,2013-06-04 02:25:00,
2013-06-03 22:30:00,65.0,48.5,29.96,NNW,338,5.0,6.0,55,-99.99,,,0.00,0.00,VWS V14.01,2013-06-04 02:30:00,
2013-06-03 22:35:00,65.0,48.0,29.96,West,270,6.0,6.0,54,-99.99,,,0.00,0.00,VWS V14.01,2013-06-04 02:35:00,
2013-06-03 22:40:00,65.0,47.0,29.96,WNW,292,3.0,7.0,52,-99.99,,,0.00,0.00,VWS V14.01,2013-06-04 02:40:00,
2013-06-03 22:45:00,64.0,46.5,29.96,West,270,3.0,3.0,53,-99.99,,,0.00,0.00,VWS V14.01,2013-06-04 02:45:00,
2013-06-03 22:50:00,64.0,46.0,29.96,West,270,3.0,3.0,52,-99.99,,,0.00,0.00,VWS V14.01,2013-06-04 02:50:00,
2013-06-03 22:55:00,64.0,45.5,29.96,WNW,292,4.0,4.0,51,-99.99,,,0.00,0.00,VWS V14.01,2013-06-04 02:55:00,
2013-06-03 22:56:00,61.0,47.0,29.98,West,270,8.0,9.0,60,-99.99,,,0.00,0.00,VWS V14.01,2013-06-04 02:56:00,
2013-06-03 22:57:00,61.0,47.0,29.98,West,270,8.0,9.0,60,-99.99,,,0.00,0.00,VWS V14.01,2013-06-04 02:57:00,
2013-06-03 22:58:00,61.0,47.0,29.98,WSW,248,8.0,9.0,60,-99.99,,,0.00,0.00,VWS V14.01,2013-06-04 02:58:00,
2013-06-03 22:59:00,61.0,47.0,29.98,WNW,292,4.0,9.0,60,-99.99,,,0.00,0.00,VWS V14.01,2013-06-04 02:59:00,
2013-06-03 23:00:00,64.0,45.5,29.96,West,270,3.0,6.0,51,-99.99,,,0.00,0.00,VWS V14.01,2013-06-04 03:00:00,
2013-06-03 23:01:00,61.0,46.6,29.98,WSW,248,8.0,9.0,59,-99.99,,,0.00,0.00,VWS V14.01,2013-06-04 03:01:00,
2013-06-03 23:02:00,61.0,46.6,29.98,WSW,248,6.0,9.0,59,-99.99,,,0.00,0.00,VWS V14.01,2013-06-04 03:02:00,
2013-06-03 23:05:00,64.0,45.5,29.97,WNW,292,4.0,6.0,51,-99.99,,,0.00,0.00,VWS V14.01,2013-06-04 03:05:00,
2013-06-03 23:10:00,64.0,45.5,29.97,West,270,4.0,4.0,51,-99.99,,,0.00,0.00,VWS V14.01,2013-06-04 03:10:00,
2013-06-03 23:15:00,63.0,44.6,29.97,West,270,2.0,4.0,51,-99.99,,,0.00,0.00,VWS V14.01,2013-06-04 03:15:00,
2013-06-03 23:20:00,63.0,44.6,29.97,West,270,2.0,4.0,51,-99.99,,,0.00,0.00,VWS V14.01,2013-06-04 03:20:00,
2013-06-03 23:25:00,63.0,46.1,29.97,WNW,292,2.0,2.0,54,-99.99,,,0.00,0.00,VWS V14.01,2013-06-04 03:25:00,
2013-06-03 23:30:00,62.0,46.1,29.97,WNW,292,3.0,3.0,56,-99.99,,,0.00,0.00,VWS V14.01,2013-06-04 03:30:00,
2013-06-03 23:35:00,62.0,48.0,29.97,WNW,292,3.0,4.0,60,-99.99,,,0.00,0.00,VWS V14.01,2013-06-04 03:35:00,
2013-06-03 23:40:00,61.0,47.5,29.97,WNW,292,4.0,4.0,61,-99.99,,,0.00,0.00,VWS V14.01,2013-06-04 03:40:00,
2013-06-03 23:45:00,61.0,47.9,29.97,West,270,7.0,7.0,62,-99.99,,,0.00,0.00,VWS V14.01,2013-06-04 03:45:00,
2013-06-03 23:50:00,61.0,47.5,29.98,WSW,248,6.0,7.0,61,-99.99,,,0.00,0.00,VWS V14.01,2013-06-04 03:50:00,
2013-06-03 23:55:00,61.0,47.5,29.98,West,270,7.0,8.0,61,-99.99,,,0.00,0.00,VWS V14.01,2013-06-04 03:55:00,